Time;durP1;ratioP1;P1;durP2;ratioP2;P2;SDS_P1;SDS_P2;PMS_P1;PMS_P2;Temp;Humidity;BMP_temperature;BMP_pressure;BME280_temperature;BME280_humidity;BME280_pressure;Samples;Min_cycle;Max_cycle;Signal;HPM_P1;HPM_P2
2023/02/10 00:01:15;;;;;;;18.52;10.00;;;;;;;;;;5055161;28;20025;-74
2023/02/10 00:03:42;;;;;;;22.38;9.45;;;;;;;;;;5068649;28;20032;-73
2023/02/10 00:06:09;;;;;;;19.35;10.30;;;;;;;;;;5066137;28;20036;-73
2023/02/10 00:08:35;;;;;;;19.90;9.90;;;;;;;;;;5054000;28;20024;-73
2023/02/10 00:11:05;;;;;;;19.75;9.23;;;;;;;;;;5054787;28;20036;-73
2023/02/10 00:13:31;;;;;;;21.02;9.63;;;;;;;;;;5062319;28;20032;-73
2023/02/10 00:15:58;;;;;;;19.17;10.93;;;;;;;;;;5068467;28;20028;-73
2023/02/10 00:18:24;;;;;;;17.95;9.65;;;;;;;;;;5066054;28;20040;-73
2023/02/10 00:20:50;;;;;;;23.77;12.20;;;;;;;;;;5064447;28;20036;-73
2023/02/10 00:23:16;;;;;;;17.70;9.10;;;;;;;;;;5058120;28;20047;-73
2023/02/10 00:25:42;;;;;;;18.88;9.27;;;;;;;;;;5062578;28;20032;-73
2023/02/10 00:28:08;;;;;;;17.73;9.32;;;;;;;;;;5063456;28;20146;-73
2023/02/10 00:30:34;;;;;;;20.40;10.07;;;;;;;;;;5058972;28;20033;-73
2023/02/10 00:33:00;;;;;;;20.88;11.52;;;;;;;;;;5063999;28;20550;-73
2023/02/10 00:35:26;;;;;;;19.42;11.55;;;;;;;;;;5066352;28;20056;-74
2023/02/10 00:37:52;;;;;;;25.15;11.73;;;;;;;;;;5058783;28;20110;-74
2023/02/10 00:40:18;;;;;;;18.48;10.35;;;;;;;;;;5063881;28;20052;-73
2023/02/10 00:42:44;;;;;;;19.85;9.45;;;;;;;;;;5062871;28;20048;-73
2023/02/10 00:45:10;;;;;;;22.00;11.23;;;;;;;;;;5060375;28;20032;-73
2023/02/10 00:47:36;;;;;;;21.48;10.25;;;;;;;;;;5057068;28;20037;-73
2023/02/10 00:50:02;;;;;;;18.70;11.23;;;;;;;;;;5061214;28;20035;-74
2023/02/10 00:52:28;;;;;;;29.55;15.00;;;;;;;;;;5068906;28;20037;-73
2023/02/10 00:54:54;;;;;;;32.80;15.60;;;;;;;;;;5061593;28;20031;-73
2023/02/10 00:57:20;;;;;;;32.22;16.27;;;;;;;;;;5055030;28;20094;-73
2023/02/10 00:59:46;;;;;;;27.02;13.70;;;;;;;;;;5064684;28;20110;-73
2023/02/10 01:02:12;;;;;;;25.23;13.30;;;;;;;;;;5062175;28;20043;-73
2023/02/10 01:04:38;;;;;;;25.35;12.48;;;;;;;;;;5058086;28;20035;-73
2023/02/10 01:07:04;;;;;;;22.95;12.20;;;;;;;;;;5057003;28;20028;-73
2023/02/10 01:09:30;;;;;;;20.63;9.88;;;;;;;;;;5063615;28;20131;-73
2023/02/10 01:11:56;;;;;;;19.13;10.95;;;;;;;;;;5059685;28;20041;-73
2023/02/10 01:14:23;;;;;;;20.08;10.77;;;;;;;;;;5063784;28;20035;-73
2023/02/10 01:16:49;;;;;;;19.05;10.75;;;;;;;;;;5052024;28;20047;-73
2023/02/10 01:19:15;;;;;;;16.85;10.15;;;;;;;;;;5062673;28;20032;-73
2023/02/10 01:21:41;;;;;;;20.38;10.38;;;;;;;;;;5061478;28;20056;-73
2023/02/10 01:24:07;;;;;;;18.10;9.85;;;;;;;;;;5053026;28;20029;-73
2023/02/10 01:26:34;;;;;;;20.75;10.85;;;;;;;;;;5065227;28;20041;-73
2023/02/10 01:29:00;;;;;;;18.27;10.27;;;;;;;;;;5057473;28;20466;-73
2023/02/10 01:31:26;;;;;;;17.52;9.10;;;;;;;;;;5063698;28;20040;-73
2023/02/10 01:33:53;;;;;;;20.40;9.63;;;;;;;;;;5057561;28;20035;-73
2023/02/10 01:36:20;;;;;;;22.10;9.95;;;;;;;;;;5065422;28;20067;-73
2023/02/10 01:38:46;;;;;;;22.05;8.55;;;;;;;;;;5056149;28;20025;-73
2023/02/10 01:41:14;;;;;;;19.60;9.88;;;;;;;;;;5053773;28;20036;-73
2023/02/10 01:44:00;;;;;;;19.40;9.27;;;;;;;;;;5067271;28;20052;-73
2023/02/10 01:46:27;;;;;;;18.58;9.00;;;;;;;;;;5054758;28;20119;-73
2023/02/10 01:48:55;;;;;;;18.23;8.75;;;;;;;;;;5058261;28;20490;-73
2023/02/10 01:51:22;;;;;;;14.30;7.20;;;;;;;;;;5056520;28;20091;-74
2023/02/10 01:53:49;;;;;;;22.73;9.65;;;;;;;;;;5060688;28;20025;-73
2023/02/10 01:56:16;;;;;;;15.13;8.23;;;;;;;;;;5067836;28;20039;-73
2023/02/10 01:58:44;;;;;;;16.40;8.23;;;;;;;;;;5057315;28;20036;-73
2023/02/10 02:01:10;;;;;;;18.70;8.35;;;;;;;;;;5060415;28;20111;-73
2023/02/10 02:03:36;;;;;;;23.27;12.93;;;;;;;;;;5057189;28;20477;-74
2023/02/10 02:06:02;;;;;;;19.85;8.93;;;;;;;;;;5063705;28;20021;-73
2023/02/10 02:08:29;;;;;;;16.45;8.80;;;;;;;;;;5065914;28;20028;-73
2023/02/10 02:11:21;;;;;;;15.93;8.15;;;;;;;;;;5059336;28;20881;-73
2023/02/10 02:13:54;;;;;;;16.60;8.35;;;;;;;;;;5063774;28;20048;-73
2023/02/10 02:16:31;;;;;;;20.00;9.80;;;;;;;;;;5066967;28;20044;-73
2023/02/10 02:19:15;;;;;;;20.85;10.88;;;;;;;;;;5055738;28;20029;-73
2023/02/10 02:21:53;;;;;;;21.77;10.95;;;;;;;;;;5063284;28;20074;-73
2023/02/10 02:24:22;;;;;;;22.75;11.13;;;;;;;;;;5055436;28;20060;-73
2023/02/10 02:26:51;;;;;;;19.42;10.80;;;;;;;;;;5059497;28;20478;-73
2023/02/10 02:29:28;;;;;;;24.17;11.30;;;;;;;;;;5069877;28;20052;-73
2023/02/10 02:31:59;;;;;;;25.40;11.63;;;;;;;;;;5064604;28;20124;-73
2023/02/10 02:34:46;;;;;;;24.30;9.27;;;;;;;;;;5062184;28;20052;-73
2023/02/10 02:37:19;;;;;;;21.90;9.57;;;;;;;;;;5061985;28;20037;-73
2023/02/10 02:39:45;;;;;;;17.50;8.23;;;;;;;;;;5058645;28;20473;-73
2023/02/10 02:42:11;;;;;;;21.15;8.30;;;;;;;;;;5060891;28;20110;-73
2023/02/10 02:44:37;;;;;;;15.50;7.70;;;;;;;;;;5064932;28;20024;-72
2023/02/10 02:47:23;;;;;;;21.15;8.38;;;;;;;;;;5066295;28;20071;-73
2023/02/10 02:50:09;;;;;;;21.25;8.90;;;;;;;;;;5061063;28;20021;-72
2023/02/10 02:52:41;;;;;;;19.30;9.57;;;;;;;;;;5019058;28;20048;-73
2023/02/10 02:55:13;;;;;;;21.17;10.68;;;;;;;;;;5062792;28;20347;-73
2023/02/10 02:57:48;;;;;;;22.17;10.02;;;;;;;;;;5063883;28;20048;-73
2023/02/10 03:00:17;;;;;;;20.27;9.85;;;;;;;;;;5061354;28;20032;-74
2023/02/10 03:02:45;;;;;;;22.98;11.27;;;;;;;;;;5067670;28;20041;-73
2023/02/10 03:05:11;;;;;;;20.67;8.85;;;;;;;;;;5056925;28;20107;-73
2023/02/10 03:07:37;;;;;;;18.13;8.32;;;;;;;;;;5070017;28;20032;-73
2023/02/10 03:10:04;;;;;;;16.30;7.30;;;;;;;;;;5069245;28;20028;-73
2023/02/10 03:12:30;;;;;;;17.67;7.80;;;;;;;;;;5065616;28;20044;-73
2023/02/10 03:14:56;;;;;;;19.88;8.45;;;;;;;;;;5062779;28;20470;-73
2023/02/10 03:17:22;;;;;;;16.15;7.93;;;;;;;;;;5062289;28;20037;-72
2023/02/10 03:19:48;;;;;;;24.42;11.65;;;;;;;;;;5057369;28;20553;-73
2023/02/10 03:22:14;;;;;;;23.25;12.07;;;;;;;;;;5062762;28;20168;-73
2023/02/10 03:24:40;;;;;;;21.17;10.30;;;;;;;;;;5068770;28;20029;-73
2023/02/10 03:27:06;;;;;;;46.22;22.23;;;;;;;;;;5063566;28;20032;-73
2023/02/10 03:29:32;;;;;;;23.15;12.90;;;;;;;;;;5062471;28;20032;-73
2023/02/10 03:32:01;;;;;;;26.30;13.32;;;;;;;;;;5055945;28;20078;-73
2023/02/10 03:34:27;;;;;;;21.85;11.82;;;;;;;;;;5063914;28;20089;-74
2023/02/10 03:36:53;;;;;;;25.85;13.80;;;;;;;;;;5060508;28;20040;-73
2023/02/10 03:39:19;;;;;;;37.92;20.30;;;;;;;;;;5065023;28;20036;-73
2023/02/10 03:41:45;;;;;;;21.95;12.65;;;;;;;;;;5056538;28;20434;-73
2023/02/10 03:44:11;;;;;;;19.60;10.27;;;;;;;;;;5061827;28;20067;-73
2023/02/10 03:46:37;;;;;;;19.95;8.63;;;;;;;;;;5054980;28;20098;-73
2023/02/10 03:49:04;;;;;;;16.65;7.68;;;;;;;;;;5060971;28;20081;-73
2023/02/10 03:51:30;;;;;;;16.05;8.98;;;;;;;;;;5064352;28;20654;-73
2023/02/10 03:53:56;;;;;;;21.98;9.38;;;;;;;;;;5057456;28;20508;-73
2023/02/10 03:56:22;;;;;;;22.17;8.48;;;;;;;;;;5056578;28;20044;-73
2023/02/10 03:58:48;;;;;;;15.02;7.25;;;;;;;;;;5061271;28;20116;-73
2023/02/10 04:01:15;;;;;;;14.82;7.20;;;;;;;;;;5058636;28;20488;-73
2023/02/10 04:03:41;;;;;;;15.50;7.35;;;;;;;;;;5054349;28;20025;-73
2023/02/10 04:06:08;;;;;;;19.63;8.95;;;;;;;;;;5053842;28;20028;-73
2023/02/10 04:08:34;;;;;;;19.00;8.35;;;;;;;;;;5063652;28;20572;-73
2023/02/10 04:11:00;;;;;;;17.95;7.82;;;;;;;;;;5050719;28;20476;-73
2023/02/10 04:13:26;;;;;;;17.13;8.52;;;;;;;;;;5065514;28;20048;-73
2023/02/10 04:16:01;;;;;;;14.32;7.30;;;;;;;;;;5050199;28;20035;-73
2023/02/10 04:18:27;;;;;;;16.67;9.23;;;;;;;;;;5064101;28;20024;-73
2023/02/10 04:20:53;;;;;;;20.83;9.65;;;;;;;;;;5060408;28;20029;-72
2023/02/10 04:23:19;;;;;;;20.55;8.75;;;;;;;;;;5055535;28;20074;-72
2023/02/10 04:25:45;;;;;;;21.35;9.10;;;;;;;;;;5067157;28;20485;-73
2023/02/10 04:28:11;;;;;;;24.00;9.80;;;;;;;;;;5067354;28;20036;-73
2023/02/10 04:30:37;;;;;;;20.05;10.00;;;;;;;;;;5063721;28;20835;-73
2023/02/10 04:33:03;;;;;;;19.85;9.27;;;;;;;;;;5064716;28;20166;-73
2023/02/10 04:35:29;;;;;;;19.75;10.25;;;;;;;;;;5063131;28;20024;-73
2023/02/10 04:37:56;;;;;;;28.35;13.13;;;;;;;;;;5052125;28;20067;-73
2023/02/10 04:40:22;;;;;;;25.48;12.40;;;;;;;;;;5051882;28;20028;-73
2023/02/10 04:42:48;;;;;;;19.73;10.50;;;;;;;;;;5052634;28;20036;-72
2023/02/10 04:45:14;;;;;;;20.52;10.43;;;;;;;;;;5058933;28;20378;-73
2023/02/10 04:47:40;;;;;;;18.52;9.13;;;;;;;;;;5062483;28;20039;-73
2023/02/10 04:50:06;;;;;;;20.15;9.07;;;;;;;;;;5061119;28;20028;-74
2023/02/10 04:52:32;;;;;;;17.40;9.20;;;;;;;;;;5059143;28;20386;-73
2023/02/10 04:54:59;;;;;;;18.80;9.50;;;;;;;;;;5062212;28;20048;-73
2023/02/10 04:57:25;;;;;;;20.15;9.75;;;;;;;;;;5069724;28;20086;-73
2023/02/10 04:59:51;;;;;;;23.98;10.48;;;;;;;;;;5067334;28;20170;-73
2023/02/10 05:02:17;;;;;;;18.05;9.43;;;;;;;;;;5056386;28;20034;-73
2023/02/10 05:04:43;;;;;;;18.67;10.32;;;;;;;;;;5052613;28;20033;-73
2023/02/10 05:07:09;;;;;;;19.75;11.18;;;;;;;;;;5058588;28;20118;-73
2023/02/10 05:09:35;;;;;;;19.35;9.23;;;;;;;;;;5054233;28;20382;-73
2023/02/10 05:12:01;;;;;;;19.63;11.48;;;;;;;;;;5054724;28;20033;-73
2023/02/10 05:14:27;;;;;;;24.25;10.52;;;;;;;;;;5067114;28;20048;-73
2023/02/10 05:16:53;;;;;;;18.83;8.80;;;;;;;;;;5057945;28;20037;-73
2023/02/10 05:19:19;;;;;;;15.13;8.32;;;;;;;;;;5058514;28;20455;-73
2023/02/10 05:21:45;;;;;;;17.50;9.07;;;;;;;;;;5056265;28;20791;-73
2023/02/10 05:24:11;;;;;;;21.77;9.07;;;;;;;;;;5061893;28;20041;-73
2023/02/10 05:26:37;;;;;;;16.52;7.93;;;;;;;;;;5059301;28;20079;-73
2023/02/10 05:29:03;;;;;;;19.67;8.57;;;;;;;;;;5063155;28;20074;-73
2023/02/10 05:31:29;;;;;;;16.25;8.75;;;;;;;;;;5067783;28;20033;-73
2023/02/10 05:33:55;;;;;;;21.88;8.90;;;;;;;;;;5061122;28;20051;-73
2023/02/10 05:36:21;;;;;;;16.70;7.88;;;;;;;;;;5061841;28;20025;-73
2023/02/10 05:41:33;;;;;;;22.33;10.10;;;;;;;;;;5061429;28;20094;-73
2023/02/10 05:43:59;;;;;;;26.38;12.25;;;;;;;;;;5067213;28;20507;-73
2023/02/10 05:46:25;;;;;;;27.73;11.90;;;;;;;;;;5066050;28;20029;-73
2023/02/10 05:48:51;;;;;;;26.02;12.40;;;;;;;;;;5069544;28;20040;-73
2023/02/10 05:51:17;;;;;;;22.85;11.07;;;;;;;;;;5066106;28;20032;-73
2023/02/10 05:53:43;;;;;;;31.85;14.80;;;;;;;;;;5055617;28;20094;-73
2023/02/10 05:56:09;;;;;;;25.35;14.25;;;;;;;;;;5064416;28;20036;-73
2023/02/10 05:58:35;;;;;;;26.38;13.35;;;;;;;;;;5064283;28;20367;-73
2023/02/10 06:01:01;;;;;;;26.35;12.13;;;;;;;;;;5057990;28;20029;-73
2023/02/10 06:03:27;;;;;;;24.88;11.77;;;;;;;;;;5060844;28;20029;-73
2023/02/10 06:05:53;;;;;;;26.65;10.85;;;;;;;;;;5065351;28;20818;-74
2023/02/10 06:08:19;;;;;;;31.33;12.20;;;;;;;;;;5071247;28;20044;-73
2023/02/10 06:10:45;;;;;;;28.55;12.25;;;;;;;;;;5061651;28;20040;-73
2023/02/10 06:13:11;;;;;;;23.83;10.88;;;;;;;;;;5062750;28;20770;-73
2023/02/10 06:15:37;;;;;;;39.65;17.05;;;;;;;;;;5057850;28;20036;-73
2023/02/10 06:18:03;;;;;;;42.50;16.50;;;;;;;;;;5064414;28;20603;-74
2023/02/10 06:20:29;;;;;;;30.73;13.35;;;;;;;;;;5060800;28;20124;-73
2023/02/10 06:22:55;;;;;;;36.30;14.52;;;;;;;;;;5062815;28;20053;-73
2023/02/10 06:25:21;;;;;;;31.13;13.93;;;;;;;;;;5063573;28;20029;-74
2023/02/10 06:27:46;;;;;;;28.60;13.02;;;;;;;;;;5064443;28;20104;-73
2023/02/10 06:30:14;;;;;;;26.52;13.70;;;;;;;;;;5057390;28;20029;-73
2023/02/10 06:32:40;;;;;;;31.70;14.23;;;;;;;;;;5063242;28;20053;-73
2023/02/10 06:35:06;;;;;;;30.88;15.25;;;;;;;;;;5061682;28;20032;-73
2023/02/10 06:37:32;;;;;;;35.28;15.70;;;;;;;;;;5059666;28;20039;-73
2023/02/10 06:39:58;;;;;;;26.05;13.23;;;;;;;;;;5064224;28;20036;-72
2023/02/10 06:42:24;;;;;;;26.30;14.48;;;;;;;;;;5055162;28;20040;-73
2023/02/10 06:44:50;;;;;;;31.38;16.58;;;;;;;;;;5064117;28;20078;-73
2023/02/10 06:47:16;;;;;;;28.88;14.60;;;;;;;;;;5060970;28;20552;-72
2023/02/10 06:49:42;;;;;;;32.20;15.90;;;;;;;;;;5060928;28;20060;-72
2023/02/10 06:52:08;;;;;;;28.95;14.07;;;;;;;;;;5061523;28;20116;-73
2023/02/10 06:54:34;;;;;;;28.38;13.88;;;;;;;;;;5057312;28;20770;-73
2023/02/10 06:57:00;;;;;;;26.20;12.80;;;;;;;;;;5064961;28;20037;-72
2023/02/10 06:59:26;;;;;;;26.60;12.98;;;;;;;;;;5058175;28;20854;-72
2023/02/10 07:01:53;;;;;;;24.50;11.95;;;;;;;;;;5057172;28;20029;-73
2023/02/10 07:04:19;;;;;;;27.13;13.60;;;;;;;;;;5059477;28;20029;-73
2023/02/10 07:06:45;;;;;;;36.70;16.92;;;;;;;;;;5062776;28;20351;-73
2023/02/10 07:09:11;;;;;;;36.95;16.13;;;;;;;;;;5064313;28;20086;-73
2023/02/10 07:11:37;;;;;;;31.85;15.63;;;;;;;;;;5064998;28;20064;-72
2023/02/10 07:14:03;;;;;;;39.35;19.70;;;;;;;;;;5054621;28;20036;-73
2023/02/10 07:16:30;;;;;;;42.47;21.70;;;;;;;;;;5057889;28;20037;-73
2023/02/10 07:18:56;;;;;;;40.35;18.90;;;;;;;;;;5042317;28;20035;-72
2023/02/10 07:21:22;;;;;;;42.03;19.45;;;;;;;;;;5063003;28;20042;-73
2023/02/10 07:23:48;;;;;;;38.28;18.63;;;;;;;;;;5062733;28;20110;-73
2023/02/10 07:26:17;;;;;;;37.70;18.70;;;;;;;;;;5058098;28;20654;-73
2023/02/10 07:28:43;;;;;;;36.67;17.02;;;;;;;;;;5064621;28;20025;-72
2023/02/10 07:31:09;;;;;;;39.60;18.17;;;;;;;;;;5059213;28;20024;-73
2023/02/10 07:33:35;;;;;;;38.40;19.38;;;;;;;;;;5065083;28;20043;-73
2023/02/10 07:36:02;;;;;;;37.58;17.77;;;;;;;;;;5060153;28;20036;-73
2023/02/10 07:38:29;;;;;;;38.90;18.10;;;;;;;;;;5062371;28;20040;-72
2023/02/10 07:40:55;;;;;;;48.67;21.45;;;;;;;;;;5059509;28;20060;-72
2023/02/10 07:43:21;;;;;;;60.90;25.85;;;;;;;;;;5055915;28;20056;-73
2023/02/10 07:45:50;;;;;;;53.92;24.33;;;;;;;;;;5055302;28;20033;-72
2023/02/10 07:48:16;;;;;;;46.88;22.70;;;;;;;;;;5058040;28;20036;-72
2023/02/10 07:50:42;;;;;;;41.25;20.88;;;;;;;;;;5063569;28;20028;-72
2023/02/10 07:53:08;;;;;;;47.25;22.42;;;;;;;;;;5056012;28;20055;-72
2023/02/10 07:55:36;;;;;;;39.85;20.80;;;;;;;;;;5057700;28;20352;-73
2023/02/10 07:58:02;;;;;;;50.17;21.50;;;;;;;;;;5061299;28;20420;-73
2023/02/10 08:00:28;;;;;;;45.38;20.50;;;;;;;;;;5058471;28;20037;-73
2023/02/10 08:02:54;;;;;;;38.60;19.77;;;;;;;;;;5062197;28;20166;-73
2023/02/10 08:05:21;;;;;;;38.47;20.73;;;;;;;;;;5056799;28;20103;-73
2023/02/10 08:07:47;;;;;;;40.50;19.27;;;;;;;;;;5059472;28;20025;-73
2023/02/10 08:10:13;;;;;;;28.35;15.77;;;;;;;;;;5066347;28;20033;-73
2023/02/10 08:12:39;;;;;;;43.85;20.60;;;;;;;;;;5061892;28;20032;-73
2023/02/10 08:15:06;;;;;;;39.40;18.98;;;;;;;;;;5060675;28;20040;-73
2023/02/10 08:17:32;;;;;;;41.05;20.02;;;;;;;;;;5059868;28;20056;-73
2023/02/10 08:19:58;;;;;;;38.40;20.92;;;;;;;;;;5056616;28;20102;-73
2023/02/10 08:22:24;;;;;;;37.65;21.15;;;;;;;;;;5067474;28;20053;-73
2023/02/10 08:24:50;;;;;;;39.85;19.25;;;;;;;;;;5062795;28;20029;-73
2023/02/10 08:27:16;;;;;;;41.38;20.13;;;;;;;;;;5061139;28;20032;-73
2023/02/10 08:29:42;;;;;;;52.88;26.70;;;;;;;;;;5059350;28;20029;-73
2023/02/10 08:32:08;;;;;;;50.60;25.02;;;;;;;;;;5059670;28;20055;-73
2023/02/10 08:34:34;;;;;;;45.92;23.92;;;;;;;;;;5058451;28;20045;-73
2023/02/10 08:37:00;;;;;;;40.67;19.05;;;;;;;;;;5061626;28;20079;-73
2023/02/10 08:39:28;;;;;;;35.45;17.17;;;;;;;;;;5055637;28;20037;-74
2023/02/10 08:41:54;;;;;;;33.75;16.02;;;;;;;;;;5057392;28;20032;-73
2023/02/10 08:44:20;;;;;;;30.15;14.48;;;;;;;;;;5062784;28;20029;-73
2023/02/10 08:46:46;;;;;;;26.35;13.38;;;;;;;;;;5064347;28;20036;-73
2023/02/10 08:49:12;;;;;;;29.98;14.55;;;;;;;;;;5061100;28;20095;-73
2023/02/10 08:51:38;;;;;;;33.95;12.68;;;;;;;;;;5060012;28;20055;-73
2023/02/10 08:54:05;;;;;;;31.40;11.93;;;;;;;;;;5061878;28;20074;-73
2023/02/10 08:56:31;;;;;;;32.63;14.50;;;;;;;;;;5060411;28;20032;-73
2023/02/10 08:58:57;;;;;;;27.70;12.73;;;;;;;;;;5062099;28;20094;-73
2023/02/10 09:01:25;;;;;;;25.25;10.77;;;;;;;;;;5056770;28;20069;-73
2023/02/10 09:03:51;;;;;;;22.27;10.63;;;;;;;;;;5065164;28;20756;-74
2023/02/10 09:06:22;;;;;;;21.90;10.93;;;;;;;;;;5057058;28;20043;-73
2023/02/10 09:08:48;;;;;;;23.27;10.43;;;;;;;;;;5056534;28;20037;-73
2023/02/10 09:11:15;;;;;;;29.77;12.35;;;;;;;;;;5060301;28;20580;-73
2023/02/10 09:13:41;;;;;;;25.33;11.18;;;;;;;;;;5059527;28;20103;-73
2023/02/10 09:16:07;;;;;;;27.30;12.70;;;;;;;;;;5063671;28;20677;-73
2023/02/10 09:18:33;;;;;;;26.02;13.07;;;;;;;;;;5066960;28;20103;-73
2023/02/10 09:21:00;;;;;;;23.05;11.55;;;;;;;;;;5062038;28;20143;-73
2023/02/10 09:23:26;;;;;;;25.27;9.82;;;;;;;;;;5063370;28;20049;-73
2023/02/10 09:25:55;;;;;;;50.13;24.38;;;;;;;;;;5061327;28;20040;-73
2023/02/10 09:28:21;;;;;;;69.85;31.92;;;;;;;;;;5065165;28;20029;-73
2023/02/10 09:30:47;;;;;;;54.50;23.77;;;;;;;;;;5063102;28;20041;-73
2023/02/10 09:33:13;;;;;;;40.70;21.02;;;;;;;;;;5057415;28;20417;-73
2023/02/10 09:35:40;;;;;;;35.25;16.42;;;;;;;;;;5062367;28;20032;-73
2023/02/10 09:38:08;;;;;;;28.95;13.20;;;;;;;;;;5055933;28;20029;-73
2023/02/10 09:40:37;;;;;;;23.02;11.50;;;;;;;;;;5058213;28;20040;-73
2023/02/10 09:43:25;;;;;;;21.83;10.07;;;;;;;;;;5061927;28;20028;-73
2023/02/10 09:45:55;;;;;;;19.08;9.75;;;;;;;;;;5060093;28;20119;-73
2023/02/10 09:48:21;;;;;;;23.73;11.27;;;;;;;;;;5059794;28;20028;-73
2023/02/10 09:51:00;;;;;;;20.67;10.18;;;;;;;;;;5061650;28;20029;-73
2023/02/10 09:53:27;;;;;;;36.33;11.00;;;;;;;;;;5058832;28;20044;-74
2023/02/10 09:55:59;;;;;;;30.77;14.63;;;;;;;;;;5060438;28;20025;-73
2023/02/10 09:58:31;;;;;;;29.83;14.33;;;;;;;;;;5056039;28;20029;-73
2023/02/10 10:01:16;;;;;;;25.70;12.00;;;;;;;;;;5054727;28;20128;-73
2023/02/10 10:03:45;;;;;;;23.85;8.27;;;;;;;;;;5060329;28;20033;-74
2023/02/10 10:06:16;;;;;;;20.13;7.45;;;;;;;;;;5055125;28;20411;-73
2023/02/10 10:09:02;;;;;;;19.05;7.93;;;;;;;;;;5058030;28;20032;-73
2023/02/10 10:11:34;;;;;;;15.77;7.85;;;;;;;;;;5059255;28;20131;-73
2023/02/10 10:14:01;;;;;;;15.18;7.43;;;;;;;;;;5064214;28;20062;-73
2023/02/10 10:16:46;;;;;;;19.23;9.02;;;;;;;;;;5063365;28;20096;-72
2023/02/10 10:19:14;;;;;;;15.07;8.73;;;;;;;;;;5061732;28;20437;-72
2023/02/10 10:21:40;;;;;;;15.25;8.48;;;;;;;;;;5061239;28;20066;-73
2023/02/10 10:24:16;;;;;;;19.38;8.68;;;;;;;;;;5059230;28;20939;-74
2023/02/10 10:26:48;;;;;;;18.33;9.10;;;;;;;;;;5056486;28;20497;-73
2023/02/10 10:29:23;;;;;;;19.02;9.68;;;;;;;;;;5065062;28;20032;-73
2023/02/10 10:31:54;;;;;;;21.17;9.10;;;;;;;;;;5059019;28;20119;-73
2023/02/10 10:34:23;;;;;;;21.40;9.80;;;;;;;;;;5057990;28;20032;-73
2023/02/10 10:36:51;;;;;;;23.83;9.43;;;;;;;;;;5060210;28;20098;-74
2023/02/10 10:39:29;;;;;;;18.67;8.63;;;;;;;;;;5067436;28;20037;-74
2023/02/10 10:41:56;;;;;;;18.95;9.43;;;;;;;;;;5065155;28;20148;-73
2023/02/10 10:44:23;;;;;;;15.82;7.55;;;;;;;;;;5060018;28;20036;-74
2023/02/10 10:46:51;;;;;;;17.75;8.15;;;;;;;;;;5060700;28;20020;-74
2023/02/10 10:49:17;;;;;;;18.15;8.15;;;;;;;;;;5052894;28;20138;-73
2023/02/10 10:51:43;;;;;;;17.27;8.15;;;;;;;;;;5069061;28;20029;-73
2023/02/10 10:54:15;;;;;;;14.68;7.32;;;;;;;;;;5066763;28;20042;-74
2023/02/10 10:56:47;;;;;;;14.37;7.33;;;;;;;;;;5065248;28;20087;-73
2023/02/10 10:59:13;;;;;;;;;;;;;;;;;;5053670;28;20059;-74
2023/02/10 11:01:41;;;;;;;18.08;8.68;;;;;;;;;;5063132;28;19955;-73
2023/02/10 11:04:17;;;;;;;19.42;8.63;;;;;;;;;;5066058;28;20044;-73
2023/02/10 11:06:46;;;;;;;16.92;7.95;;;;;;;;;;5063488;28;20025;-73
2023/02/10 11:09:24;;;;;;;16.60;7.85;;;;;;;;;;5062778;28;20063;-73
2023/02/10 11:11:51;;;;;;;25.60;8.50;;;;;;;;;;5049840;28;20029;-73
2023/02/10 11:14:27;;;;;;;14.63;8.43;;;;;;;;;;5059364;28;20450;-74
2023/02/10 11:17:01;;;;;;;19.23;8.88;;;;;;;;;;5059429;28;20067;-74
2023/02/10 11:19:28;;;;;;;21.92;9.13;;;;;;;;;;5066610;28;20040;-74
2023/02/10 11:21:55;;;;;;;19.17;8.57;;;;;;;;;;5063877;28;20047;-73
2023/02/10 11:24:28;;;;;;;20.27;8.25;;;;;;;;;;5057078;28;20064;-74
2023/02/10 11:26:55;;;;;;;20.77;8.57;;;;;;;;;;5064679;28;20062;-73
2023/02/10 11:29:21;;;;;;;19.52;8.60;;;;;;;;;;5063489;28;20397;-73
2023/02/10 11:31:47;;;;;;;16.95;8.95;;;;;;;;;;5060126;28;20036;-73
2023/02/10 11:34:28;;;;;;;18.05;8.32;;;;;;;;;;5058916;28;20079;-74
2023/02/10 11:36:56;;;;;;;14.93;7.25;;;;;;;;;;5056867;28;20039;-74
2023/02/10 11:39:28;;;;;;;15.27;7.75;;;;;;;;;;5057470;28;20043;-73
2023/02/10 11:41:55;;;;;;;14.43;6.47;;;;;;;;;;5057720;28;20044;-73
2023/02/10 11:44:25;;;;;;;13.93;6.70;;;;;;;;;;5066358;28;20033;-73
2023/02/10 11:47:01;;;;;;;19.50;7.32;;;;;;;;;;5056348;28;20032;-73
2023/02/10 11:49:31;;;;;;;18.45;7.35;;;;;;;;;;5062105;28;20850;-73
2023/02/10 11:51:58;;;;;;;15.43;7.10;;;;;;;;;;5066464;28;20029;-73
2023/02/10 11:54:24;;;;;;;20.48;7.47;;;;;;;;;;5060587;28;20033;-73
2023/02/10 11:59:55;;;;;;;19.58;7.78;;;;;;;;;;5011849;28;20044;-73
2023/02/10 12:02:21;;;;;;;19.00;8.10;;;;;;;;;;5060618;28;20041;-74
2023/02/10 12:05:07;;;;;;;15.98;8.43;;;;;;;;;;5058377;28;20074;-73
2023/02/10 12:07:39;;;;;;;19.60;7.72;;;;;;;;;;5055618;28;20434;-74
2023/02/10 12:10:26;;;;;;;15.68;8.25;;;;;;;;;;5056311;28;20486;-74
2023/02/10 12:12:52;;;;;;;18.27;8.40;;;;;;;;;;5053633;28;20417;-73
2023/02/10 12:15:24;;;;;;;17.65;7.40;;;;;;;;;;5052167;28;20033;-73
2023/02/10 12:17:59;;;;;;;15.32;7.80;;;;;;;;;;5055689;28;20028;-74
2023/02/10 12:20:41;;;;;;;17.63;7.50;;;;;;;;;;5064185;28;20784;-74
2023/02/10 12:23:26;;;;;;;15.68;7.45;;;;;;;;;;5064261;28;20062;-74
2023/02/10 12:25:58;;;;;;;16.05;7.50;;;;;;;;;;5060297;28;20418;-73
2023/02/10 12:28:32;;;;;;;15.63;8.35;;;;;;;;;;5060425;28;20033;-73
2023/02/10 12:30:58;;;;;;;18.17;8.93;;;;;;;;;;5065117;28;20834;-73
2023/02/10 12:33:36;;;;;;;18.65;8.85;;;;;;;;;;5057518;28;20119;-73
2023/02/10 12:36:14;;;;;;;17.35;10.65;;;;;;;;;;5057446;28;20029;-73
2023/02/10 12:38:46;;;;;;;18.35;9.50;;;;;;;;;;5060781;28;20029;-73
2023/02/10 12:41:19;;;;;;;18.38;10.98;;;;;;;;;;5057228;28;20039;-73
2023/02/10 12:43:45;;;;;;;20.10;10.25;;;;;;;;;;5062550;28;20040;-73
2023/02/10 12:46:32;;;;;;;21.63;10.63;;;;;;;;;;5057888;28;20476;-73
2023/02/10 12:49:17;;;;;;;21.20;11.20;;;;;;;;;;5060671;28;20025;-74
2023/02/10 12:51:58;;;;;;;17.25;10.85;;;;;;;;;;5054620;28;20041;-74
2023/02/10 12:54:30;;;;;;;19.13;11.95;;;;;;;;;;5055917;28;20021;-73
2023/02/10 12:56:59;;;;;;;22.23;12.65;;;;;;;;;;5061712;28;20032;-73
2023/02/10 12:59:36;;;;;;;22.00;12.32;;;;;;;;;;5061225;28;20033;-73
2023/02/10 13:02:11;;;;;;;23.40;11.07;;;;;;;;;;5054114;28;20043;-74
2023/02/10 13:04:42;;;;;;;23.30;12.10;;;;;;;;;;5066374;28;20032;-74
2023/02/10 13:07:12;;;;;;;21.48;13.30;;;;;;;;;;5051042;28;20025;-73
2023/02/10 13:09:54;;;;;;;23.50;12.40;;;;;;;;;;5058873;28;20025;-73
2023/02/10 13:12:32;;;;;;;19.60;11.43;;;;;;;;;;5060834;28;20035;-74
2023/02/10 13:15:04;;;;;;;20.17;10.65;;;;;;;;;;5060946;28;20036;-73
2023/02/10 13:17:34;;;;;;;18.02;10.32;;;;;;;;;;5057491;28;20029;-74
2023/02/10 13:20:17;;;;;;;22.83;11.13;;;;;;;;;;5064084;28;20480;-74
2023/02/10 13:22:53;;;;;;;20.63;11.60;;;;;;;;;;5060426;28;20098;-74
2023/02/10 13:25:35;;;;;;;21.60;11.60;;;;;;;;;;5059389;28;20068;-74
2023/02/10 13:28:10;;;;;;;18.10;10.25;;;;;;;;;;5061962;28;20021;-73
2023/02/10 13:30:39;;;;;;;18.95;11.15;;;;;;;;;;5061136;28;20486;-73
2023/02/10 13:33:12;;;;;;;21.15;12.73;;;;;;;;;;5055700;28;20107;-73
2023/02/10 13:35:41;;;;;;;22.13;13.38;;;;;;;;;;5063924;28;20039;-74
2023/02/10 13:38:08;;;;;;;21.35;11.45;;;;;;;;;;5062125;28;20385;-73
2023/02/10 13:40:46;;;;;;;17.88;9.57;;;;;;;;;;5063030;28;20421;-74
2023/02/10 13:43:24;;;;;;;21.40;9.90;;;;;;;;;;5060559;28;20044;-74
2023/02/10 13:45:51;;;;;;;20.02;10.00;;;;;;;;;;5069032;28;20056;-73
2023/02/10 13:48:31;;;;;;;16.38;9.10;;;;;;;;;;5059809;28;20036;-73
2023/02/10 13:51:01;;;;;;;20.55;10.75;;;;;;;;;;5064586;28;20032;-74
2023/02/10 13:53:33;;;;;;;18.08;9.55;;;;;;;;;;5068926;28;20032;-73
2023/02/10 13:56:25;;;;;;;17.00;8.55;;;;;;;;;;5064288;28;20039;-73
2023/02/10 13:58:58;;;;;;;19.77;8.57;;;;;;;;;;5055482;28;20039;-73
2023/02/10 14:01:30;;;;;;;24.40;8.90;;;;;;;;;;5066900;28;20033;-73
2023/02/10 14:03:56;;;;;;;17.92;8.20;;;;;;;;;;5057714;28;20033;-74
2023/02/10 14:06:32;;;;;;;15.52;8.57;;;;;;;;;;5060001;28;20064;-73
2023/02/10 14:09:03;;;;;;;15.25;7.80;;;;;;;;;;5062990;28;20481;-73
2023/02/10 14:11:36;;;;;;;21.25;9.18;;;;;;;;;;5062574;28;20394;-74
2023/02/10 14:14:21;;;;;;;16.48;8.70;;;;;;;;;;5064108;28;20053;-73
2023/02/10 14:16:47;;;;;;;16.88;8.77;;;;;;;;;;5064770;28;20039;-73
2023/02/10 14:19:24;;;;;;;15.50;8.50;;;;;;;;;;5054222;28;20037;-74
2023/02/10 14:21:51;;;;;;;20.20;10.00;;;;;;;;;;5057511;28;20044;-73
2023/02/10 14:24:37;;;;;;;20.80;9.50;;;;;;;;;;5061262;28;20042;-73
2023/02/10 14:27:09;;;;;;;16.83;9.45;;;;;;;;;;5057662;28;20033;-74
2023/02/10 14:29:35;;;;;;;15.05;8.50;;;;;;;;;;5059544;28;20036;-74
2023/02/10 14:32:03;;;;;;;18.02;8.80;;;;;;;;;;5061123;28;20464;-73
2023/02/10 14:34:36;;;;;;;21.33;9.50;;;;;;;;;;5060125;28;20033;-74
2023/02/10 14:37:13;;;;;;;14.90;9.23;;;;;;;;;;5069423;28;20028;-73
2023/02/10 14:39:40;;;;;;;18.17;9.98;;;;;;;;;;5067353;28;20032;-74